sensor_id;sensor_type;location;lat;lon;timestamp;P1;durP1;ratioP1;P2;durP2;ratioP2
4244;SDS011;2136;48.502;9.194;2022-12-08T00:01:17;9.93;;;6.90;;
4244;SDS011;2136;48.502;9.194;2022-12-08T00:03:45;10.47;;;7.20;;
4244;SDS011;2136;48.502;9.194;2022-12-08T00:06:14;12.03;;;6.73;;
4244;SDS011;2136;48.502;9.194;2022-12-08T00:09:07;9.23;;;6.77;;
4244;SDS011;2136;48.502;9.194;2022-12-08T00:11:47;11.37;;;7.60;;
4244;SDS011;2136;48.502;9.194;2022-12-08T00:14:16;10.43;;;7.20;;
4244;SDS011;2136;48.502;9.194;2022-12-08T00:16:43;10.50;;;6.40;;
4244;SDS011;2136;48.502;9.194;2022-12-08T00:19:10;9.60;;;7.40;;
4244;SDS011;2136;48.502;9.194;2022-12-08T00:21:37;9.23;;;6.23;;
4244;SDS011;2136;48.502;9.194;2022-12-08T00:24:04;7.60;;;6.10;;
4244;SDS011;2136;48.502;9.194;2022-12-08T00:26:31;9.83;;;6.47;;
4244;SDS011;2136;48.502;9.194;2022-12-08T00:28:58;9.73;;;6.50;;
4244;SDS011;2136;48.502;9.194;2022-12-08T00:31:26;9.57;;;6.40;;
4244;SDS011;2136;48.502;9.194;2022-12-08T00:33:53;7.93;;;6.87;;
4244;SDS011;2136;48.502;9.194;2022-12-08T00:36:19;11.03;;;6.80;;
4244;SDS011;2136;48.502;9.194;2022-12-08T00:38:46;8.80;;;6.57;;
4244;SDS011;2136;48.502;9.194;2022-12-08T00:41:14;7.30;;;5.93;;
4244;SDS011;2136;48.502;9.194;2022-12-08T00:43:43;7.87;;;6.43;;
4244;SDS011;2136;48.502;9.194;2022-12-08T00:46:09;17.60;;;6.20;;
4244;SDS011;2136;48.502;9.194;2022-12-08T00:48:37;8.70;;;5.97;;
4244;SDS011;2136;48.502;9.194;2022-12-08T00:51:04;13.60;;;7.30;;
4244;SDS011;2136;48.502;9.194;2022-12-08T00:53:31;7.80;;;6.07;;
4244;SDS011;2136;48.502;9.194;2022-12-08T00:55:58;7.63;;;6.67;;
4244;SDS011;2136;48.502;9.194;2022-12-08T00:58:25;8.20;;;5.90;;
4244;SDS011;2136;48.502;9.194;2022-12-08T01:00:52;9.70;;;7.30;;
4244;SDS011;2136;48.502;9.194;2022-12-08T01:03:18;7.40;;;5.33;;
4244;SDS011;2136;48.502;9.194;2022-12-08T01:05:47;10.83;;;7.17;;
4244;SDS011;2136;48.502;9.194;2022-12-08T01:08:13;10.03;;;7.30;;
4244;SDS011;2136;48.502;9.194;2022-12-08T01:10:40;12.20;;;7.10;;
4244;SDS011;2136;48.502;9.194;2022-12-08T01:13:07;10.17;;;6.97;;
4244;SDS011;2136;48.502;9.194;2022-12-08T01:15:34;9.87;;;6.43;;
4244;SDS011;2136;48.502;9.194;2022-12-08T01:18:02;8.13;;;6.73;;
4244;SDS011;2136;48.502;9.194;2022-12-08T01:20:29;12.27;;;7.83;;
4244;SDS011;2136;48.502;9.194;2022-12-08T01:22:57;8.47;;;6.37;;
4244;SDS011;2136;48.502;9.194;2022-12-08T01:25:24;10.47;;;7.67;;
4244;SDS011;2136;48.502;9.194;2022-12-08T01:27:51;9.63;;;6.83;;
4244;SDS011;2136;48.502;9.194;2022-12-08T01:30:18;8.60;;;6.30;;
4244;SDS011;2136;48.502;9.194;2022-12-08T01:32:45;15.23;;;7.23;;
4244;SDS011;2136;48.502;9.194;2022-12-08T01:35:12;7.30;;;6.00;;
4244;SDS011;2136;48.502;9.194;2022-12-08T01:37:39;12.67;;;7.17;;
4244;SDS011;2136;48.502;9.194;2022-12-08T01:40:08;8.07;;;6.97;;
4244;SDS011;2136;48.502;9.194;2022-12-08T01:42:35;8.63;;;6.60;;
4244;SDS011;2136;48.502;9.194;2022-12-08T01:45:03;9.50;;;6.80;;
4244;SDS011;2136;48.502;9.194;2022-12-08T01:47:33;9.67;;;6.87;;
4244;SDS011;2136;48.502;9.194;2022-12-08T01:50:03;12.30;;;8.17;;
4244;SDS011;2136;48.502;9.194;2022-12-08T01:52:34;9.55;;;6.65;;
4244;SDS011;2136;48.502;9.194;2022-12-08T01:55:05;9.40;;;6.53;;
4244;SDS011;2136;48.502;9.194;2022-12-08T01:57:39;11.80;;;8.00;;
4244;SDS011;2136;48.502;9.194;2022-12-08T02:00:09;11.25;;;7.68;;
4244;SDS011;2136;48.502;9.194;2022-12-08T02:02:41;10.20;;;7.32;;
4244;SDS011;2136;48.502;9.194;2022-12-08T02:05:15;8.57;;;6.90;;
4244;SDS011;2136;48.502;9.194;2022-12-08T02:07:43;12.87;;;7.83;;
4244;SDS011;2136;48.502;9.194;2022-12-08T02:10:15;11.18;;;7.10;;
4244;SDS011;2136;48.502;9.194;2022-12-08T02:12:44;15.23;;;7.47;;
4244;SDS011;2136;48.502;9.194;2022-12-08T02:15:12;11.33;;;8.20;;
4244;SDS011;2136;48.502;9.194;2022-12-08T02:17:44;11.23;;;7.87;;
4244;SDS011;2136;48.502;9.194;2022-12-08T02:20:25;12.18;;;7.32;;
4244;SDS011;2136;48.502;9.194;2022-12-08T02:23:04;12.57;;;8.07;;
4244;SDS011;2136;48.502;9.194;2022-12-08T02:25:40;9.07;;;6.97;;
4244;SDS011;2136;48.502;9.194;2022-12-08T02:28:27;8.57;;;6.07;;
4244;SDS011;2136;48.502;9.194;2022-12-08T02:31:08;10.90;;;7.13;;
4244;SDS011;2136;48.502;9.194;2022-12-08T02:33:57;9.07;;;6.97;;
4244;SDS011;2136;48.502;9.194;2022-12-08T02:36:47;12.90;;;8.17;;
4244;SDS011;2136;48.502;9.194;2022-12-08T02:39:32;10.70;;;7.67;;
4244;SDS011;2136;48.502;9.194;2022-12-08T02:42:07;10.18;;;7.32;;
4244;SDS011;2136;48.502;9.194;2022-12-08T02:44:40;9.82;;;6.78;;
4244;SDS011;2136;48.502;9.194;2022-12-08T02:47:13;9.00;;;6.55;;
4244;SDS011;2136;48.502;9.194;2022-12-08T02:49:44;11.48;;;7.30;;
4244;SDS011;2136;48.502;9.194;2022-12-08T02:55:08;11.35;;;7.65;;
4244;SDS011;2136;48.502;9.194;2022-12-08T02:57:43;11.73;;;8.45;;
4244;SDS011;2136;48.502;9.194;2022-12-08T03:00:24;11.80;;;8.30;;
4244;SDS011;2136;48.502;9.194;2022-12-08T03:02:58;10.45;;;7.18;;
4244;SDS011;2136;48.502;9.194;2022-12-08T03:05:48;13.33;;;7.97;;
4244;SDS011;2136;48.502;9.194;2022-12-08T03:08:23;10.20;;;6.97;;
4244;SDS011;2136;48.502;9.194;2022-12-08T03:11:00;10.00;;;7.25;;
4244;SDS011;2136;48.502;9.194;2022-12-08T03:13:31;10.13;;;7.40;;
4244;SDS011;2136;48.502;9.194;2022-12-08T03:16:03;11.10;;;8.13;;
4244;SDS011;2136;48.502;9.194;2022-12-08T03:18:34;13.65;;;8.55;;
4244;SDS011;2136;48.502;9.194;2022-12-08T03:21:06;11.00;;;7.05;;
4244;SDS011;2136;48.502;9.194;2022-12-08T03:23:35;12.98;;;7.53;;
4244;SDS011;2136;48.502;9.194;2022-12-08T03:26:03;11.13;;;7.10;;
4244;SDS011;2136;48.502;9.194;2022-12-08T03:28:37;13.18;;;6.80;;
4244;SDS011;2136;48.502;9.194;2022-12-08T03:31:05;11.18;;;8.00;;
4244;SDS011;2136;48.502;9.194;2022-12-08T03:33:35;11.73;;;8.80;;
4244;SDS011;2136;48.502;9.194;2022-12-08T03:36:07;10.13;;;7.10;;
4244;SDS011;2136;48.502;9.194;2022-12-08T03:38:36;11.80;;;8.00;;
4244;SDS011;2136;48.502;9.194;2022-12-08T03:41:05;10.50;;;6.45;;
4244;SDS011;2136;48.502;9.194;2022-12-08T03:43:44;9.73;;;6.90;;
4244;SDS011;2136;48.502;9.194;2022-12-08T03:46:11;9.98;;;8.18;;
4244;SDS011;2136;48.502;9.194;2022-12-08T03:48:38;8.48;;;6.72;;
4244;SDS011;2136;48.502;9.194;2022-12-08T03:51:06;10.65;;;7.07;;
4244;SDS011;2136;48.502;9.194;2022-12-08T03:53:33;12.45;;;9.25;;
4244;SDS011;2136;48.502;9.194;2022-12-08T03:56:02;10.73;;;7.75;;
4244;SDS011;2136;48.502;9.194;2022-12-08T03:58:29;11.43;;;7.25;;
4244;SDS011;2136;48.502;9.194;2022-12-08T04:00:56;13.30;;;8.45;;
4244;SDS011;2136;48.502;9.194;2022-12-08T04:03:23;11.63;;;7.53;;
4244;SDS011;2136;48.502;9.194;2022-12-08T04:05:50;17.98;;;7.90;;
4244;SDS011;2136;48.502;9.194;2022-12-08T04:08:18;11.40;;;8.30;;
4244;SDS011;2136;48.502;9.194;2022-12-08T04:10:45;12.30;;;8.05;;
4244;SDS011;2136;48.502;9.194;2022-12-08T04:13:11;9.83;;;7.63;;
4244;SDS011;2136;48.502;9.194;2022-12-08T04:15:38;10.57;;;6.95;;
4244;SDS011;2136;48.502;9.194;2022-12-08T04:18:09;10.63;;;7.10;;
4244;SDS011;2136;48.502;9.194;2022-12-08T04:20:37;9.80;;;7.03;;
4244;SDS011;2136;48.502;9.194;2022-12-08T04:23:04;8.98;;;7.47;;
4244;SDS011;2136;48.502;9.194;2022-12-08T04:25:32;10.75;;;6.80;;
4244;SDS011;2136;48.502;9.194;2022-12-08T04:27:59;15.48;;;8.00;;
4244;SDS011;2136;48.502;9.194;2022-12-08T04:30:26;12.00;;;7.32;;
4244;SDS011;2136;48.502;9.194;2022-12-08T04:32:52;12.18;;;7.88;;
4244;SDS011;2136;48.502;9.194;2022-12-08T04:35:19;11.82;;;8.50;;
4244;SDS011;2136;48.502;9.194;2022-12-08T04:37:46;11.32;;;7.60;;
4244;SDS011;2136;48.502;9.194;2022-12-08T04:40:13;10.85;;;7.35;;
4244;SDS011;2136;48.502;9.194;2022-12-08T04:42:41;8.10;;;6.10;;
4244;SDS011;2136;48.502;9.194;2022-12-08T04:45:08;9.02;;;6.75;;
4244;SDS011;2136;48.502;9.194;2022-12-08T04:47:36;7.90;;;5.60;;
4244;SDS011;2136;48.502;9.194;2022-12-08T04:50:03;9.65;;;7.20;;
4244;SDS011;2136;48.502;9.194;2022-12-08T04:52:30;12.77;;;7.53;;
4244;SDS011;2136;48.502;9.194;2022-12-08T04:54:57;11.18;;;8.00;;
4244;SDS011;2136;48.502;9.194;2022-12-08T04:57:24;13.82;;;7.80;;
4244;SDS011;2136;48.502;9.194;2022-12-08T04:59:52;8.30;;;6.30;;
4244;SDS011;2136;48.502;9.194;2022-12-08T05:02:19;8.90;;;5.93;;
4244;SDS011;2136;48.502;9.194;2022-12-08T05:04:46;10.85;;;8.10;;
4244;SDS011;2136;48.502;9.194;2022-12-08T05:07:13;10.35;;;7.18;;
4244;SDS011;2136;48.502;9.194;2022-12-08T05:09:40;13.30;;;7.47;;
4244;SDS011;2136;48.502;9.194;2022-12-08T05:12:07;8.82;;;6.82;;
4244;SDS011;2136;48.502;9.194;2022-12-08T05:14:34;9.48;;;6.20;;
4244;SDS011;2136;48.502;9.194;2022-12-08T05:17:02;10.75;;;7.38;;
4244;SDS011;2136;48.502;9.194;2022-12-08T05:19:28;11.27;;;6.80;;
4244;SDS011;2136;48.502;9.194;2022-12-08T05:21:55;10.82;;;7.40;;
4244;SDS011;2136;48.502;9.194;2022-12-08T05:24:22;11.68;;;8.88;;
4244;SDS011;2136;48.502;9.194;2022-12-08T05:26:49;18.67;;;9.60;;
4244;SDS011;2136;48.502;9.194;2022-12-08T05:29:16;16.07;;;10.13;;
4244;SDS011;2136;48.502;9.194;2022-12-08T05:31:43;11.75;;;8.35;;
4244;SDS011;2136;48.502;9.194;2022-12-08T05:34:11;15.57;;;9.40;;
4244;SDS011;2136;48.502;9.194;2022-12-08T05:36:38;15.50;;;9.30;;
4244;SDS011;2136;48.502;9.194;2022-12-08T05:39:05;10.10;;;7.90;;
4244;SDS011;2136;48.502;9.194;2022-12-08T05:41:31;13.18;;;8.10;;
4244;SDS011;2136;48.502;9.194;2022-12-08T05:43:58;14.80;;;7.80;;
4244;SDS011;2136;48.502;9.194;2022-12-08T05:46:25;13.45;;;7.95;;
4244;SDS011;2136;48.502;9.194;2022-12-08T05:48:52;7.68;;;6.53;;
4244;SDS011;2136;48.502;9.194;2022-12-08T05:51:21;9.90;;;6.97;;
4244;SDS011;2136;48.502;9.194;2022-12-08T05:53:49;12.68;;;7.03;;
4244;SDS011;2136;48.502;9.194;2022-12-08T05:56:17;10.48;;;7.60;;
4244;SDS011;2136;48.502;9.194;2022-12-08T05:58:45;10.00;;;7.70;;
4244;SDS011;2136;48.502;9.194;2022-12-08T06:01:17;10.18;;;7.65;;
4244;SDS011;2136;48.502;9.194;2022-12-08T06:03:45;8.93;;;6.82;;
4244;SDS011;2136;48.502;9.194;2022-12-08T06:06:11;8.82;;;7.13;;
4244;SDS011;2136;48.502;9.194;2022-12-08T06:08:40;10.23;;;6.13;;
4244;SDS011;2136;48.502;9.194;2022-12-08T06:11:07;11.38;;;7.15;;
4244;SDS011;2136;48.502;9.194;2022-12-08T06:13:34;9.50;;;6.40;;
4244;SDS011;2136;48.502;9.194;2022-12-08T06:16:02;10.45;;;6.70;;
4244;SDS011;2136;48.502;9.194;2022-12-08T06:18:29;20.67;;;8.10;;
4244;SDS011;2136;48.502;9.194;2022-12-08T06:21:00;11.52;;;9.65;;
4244;SDS011;2136;48.502;9.194;2022-12-08T06:23:28;12.77;;;8.02;;
4244;SDS011;2136;48.502;9.194;2022-12-08T06:26:00;10.43;;;8.10;;
4244;SDS011;2136;48.502;9.194;2022-12-08T06:28:27;10.40;;;8.13;;
4244;SDS011;2136;48.502;9.194;2022-12-08T06:30:54;12.40;;;8.50;;
4244;SDS011;2136;48.502;9.194;2022-12-08T06:33:21;11.98;;;8.05;;
4244;SDS011;2136;48.502;9.194;2022-12-08T06:35:48;13.32;;;8.45;;
4244;SDS011;2136;48.502;9.194;2022-12-08T06:38:15;13.07;;;8.63;;
4244;SDS011;2136;48.502;9.194;2022-12-08T06:40:42;13.05;;;7.93;;
4244;SDS011;2136;48.502;9.194;2022-12-08T06:43:10;12.32;;;8.30;;
4244;SDS011;2136;48.502;9.194;2022-12-08T06:45:39;11.52;;;8.73;;
4244;SDS011;2136;48.502;9.194;2022-12-08T06:48:06;13.98;;;8.93;;
4244;SDS011;2136;48.502;9.194;2022-12-08T06:50:35;13.15;;;8.45;;
4244;SDS011;2136;48.502;9.194;2022-12-08T06:53:02;14.57;;;10.35;;
4244;SDS011;2136;48.502;9.194;2022-12-08T06:55:29;12.95;;;8.75;;
4244;SDS011;2136;48.502;9.194;2022-12-08T06:57:55;11.95;;;9.02;;
4244;SDS011;2136;48.502;9.194;2022-12-08T07:00:24;11.60;;;8.05;;
4244;SDS011;2136;48.502;9.194;2022-12-08T07:02:50;13.07;;;8.52;;
4244;SDS011;2136;48.502;9.194;2022-12-08T07:05:17;12.73;;;7.97;;
4244;SDS011;2136;48.502;9.194;2022-12-08T07:07:44;11.80;;;8.35;;
4244;SDS011;2136;48.502;9.194;2022-12-08T07:10:11;14.18;;;8.80;;
4244;SDS011;2136;48.502;9.194;2022-12-08T07:12:38;14.38;;;7.80;;
4244;SDS011;2136;48.502;9.194;2022-12-08T07:15:05;12.98;;;8.57;;
4244;SDS011;2136;48.502;9.194;2022-12-08T07:17:34;16.45;;;10.70;;
4244;SDS011;2136;48.502;9.194;2022-12-08T07:20:01;23.40;;;8.48;;
4244;SDS011;2136;48.502;9.194;2022-12-08T07:22:27;14.10;;;9.15;;
4244;SDS011;2136;48.502;9.194;2022-12-08T07:24:54;13.30;;;9.02;;
4244;SDS011;2136;48.502;9.194;2022-12-08T07:27:21;18.17;;;10.63;;
4244;SDS011;2136;48.502;9.194;2022-12-08T07:29:48;21.08;;;10.13;;
4244;SDS011;2136;48.502;9.194;2022-12-08T07:32:15;16.80;;;9.63;;
4244;SDS011;2136;48.502;9.194;2022-12-08T07:34:43;16.35;;;10.25;;
4244;SDS011;2136;48.502;9.194;2022-12-08T07:37:09;21.88;;;11.15;;
4244;SDS011;2136;48.502;9.194;2022-12-08T07:39:36;20.42;;;10.65;;
4244;SDS011;2136;48.502;9.194;2022-12-08T07:42:03;18.17;;;11.05;;
4244;SDS011;2136;48.502;9.194;2022-12-08T07:44:30;19.55;;;11.15;;
4244;SDS011;2136;48.502;9.194;2022-12-08T07:46:57;16.45;;;8.80;;
4244;SDS011;2136;48.502;9.194;2022-12-08T07:49:23;19.42;;;8.77;;
4244;SDS011;2136;48.502;9.194;2022-12-08T07:51:52;12.40;;;7.85;;
4244;SDS011;2136;48.502;9.194;2022-12-08T07:54:18;15.35;;;9.57;;
4244;SDS011;2136;48.502;9.194;2022-12-08T07:56:45;16.55;;;9.27;;
4244;SDS011;2136;48.502;9.194;2022-12-08T07:59:12;19.23;;;9.95;;
4244;SDS011;2136;48.502;9.194;2022-12-08T08:01:39;22.52;;;10.15;;
4244;SDS011;2136;48.502;9.194;2022-12-08T08:04:06;19.98;;;11.07;;
4244;SDS011;2136;48.502;9.194;2022-12-08T08:06:33;17.95;;;9.07;;
4244;SDS011;2136;48.502;9.194;2022-12-08T08:09:02;18.92;;;9.77;;
4244;SDS011;2136;48.502;9.194;2022-12-08T08:11:29;15.98;;;8.70;;
4244;SDS011;2136;48.502;9.194;2022-12-08T08:13:56;17.30;;;10.00;;
4244;SDS011;2136;48.502;9.194;2022-12-08T08:16:23;13.30;;;8.25;;
4244;SDS011;2136;48.502;9.194;2022-12-08T08:18:50;17.42;;;9.63;;
4244;SDS011;2136;48.502;9.194;2022-12-08T08:21:17;15.38;;;9.90;;
4244;SDS011;2136;48.502;9.194;2022-12-08T08:23:45;21.35;;;12.07;;
4244;SDS011;2136;48.502;9.194;2022-12-08T08:26:14;19.35;;;10.52;;
4244;SDS011;2136;48.502;9.194;2022-12-08T08:28:40;23.35;;;11.90;;
4244;SDS011;2136;48.502;9.194;2022-12-08T08:31:09;29.60;;;13.07;;
4244;SDS011;2136;48.502;9.194;2022-12-08T08:33:36;16.70;;;10.25;;
4244;SDS011;2136;48.502;9.194;2022-12-08T08:36:05;14.13;;;9.20;;
4244;SDS011;2136;48.502;9.194;2022-12-08T08:38:32;13.02;;;9.52;;
4244;SDS011;2136;48.502;9.194;2022-12-08T08:41:06;21.40;;;11.30;;
4244;SDS011;2136;48.502;9.194;2022-12-08T08:43:35;16.42;;;11.32;;
4244;SDS011;2136;48.502;9.194;2022-12-08T08:46:03;14.65;;;9.70;;
4244;SDS011;2136;48.502;9.194;2022-12-08T08:48:30;19.80;;;11.18;;
4244;SDS011;2136;48.502;9.194;2022-12-08T08:50:58;14.98;;;10.50;;
4244;SDS011;2136;48.502;9.194;2022-12-08T08:53:33;18.27;;;11.05;;
4244;SDS011;2136;48.502;9.194;2022-12-08T08:55:59;21.75;;;11.10;;
4244;SDS011;2136;48.502;9.194;2022-12-08T08:58:29;18.97;;;11.50;;
4244;SDS011;2136;48.502;9.194;2022-12-08T09:00:57;16.30;;;10.20;;
4244;SDS011;2136;48.502;9.194;2022-12-08T09:03:24;24.27;;;11.75;;
4244;SDS011;2136;48.502;9.194;2022-12-08T09:05:50;19.00;;;11.48;;
4244;SDS011;2136;48.502;9.194;2022-12-08T09:08:17;15.35;;;11.05;;
4244;SDS011;2136;48.502;9.194;2022-12-08T09:10:44;20.58;;;11.60;;
4244;SDS011;2136;48.502;9.194;2022-12-08T09:13:11;24.88;;;15.05;;
4244;SDS011;2136;48.502;9.194;2022-12-08T09:15:38;19.93;;;11.60;;
4244;SDS011;2136;48.502;9.194;2022-12-08T09:18:06;15.13;;;10.47;;
4244;SDS011;2136;48.502;9.194;2022-12-08T09:20:33;24.20;;;11.85;;
4244;SDS011;2136;48.502;9.194;2022-12-08T09:23:00;27.63;;;11.70;;
4244;SDS011;2136;48.502;9.194;2022-12-08T09:25:27;19.30;;;10.57;;
4244;SDS011;2136;48.502;9.194;2022-12-08T09:27:54;18.92;;;10.85;;
4244;SDS011;2136;48.502;9.194;2022-12-08T09:30:21;18.97;;;10.53;;
4244;SDS011;2136;48.502;9.194;2022-12-08T09:32:48;14.40;;;9.53;;
4244;SDS011;2136;48.502;9.194;2022-12-08T09:35:16;25.47;;;13.07;;
4244;SDS011;2136;48.502;9.194;2022-12-08T09:37:43;19.20;;;12.77;;
4244;SDS011;2136;48.502;9.194;2022-12-08T09:40:10;20.40;;;10.03;;
4244;SDS011;2136;48.502;9.194;2022-12-08T09:42:43;12.10;;;7.20;;
4244;SDS011;2136;48.502;9.194;2022-12-08T09:45:16;17.23;;;9.00;;
4244;SDS011;2136;48.502;9.194;2022-12-08T09:47:44;13.87;;;8.50;;
4244;SDS011;2136;48.502;9.194;2022-12-08T09:50:18;15.67;;;9.00;;
4244;SDS011;2136;48.502;9.194;2022-12-08T09:52:57;13.40;;;7.97;;
4244;SDS011;2136;48.502;9.194;2022-12-08T09:55:33;15.23;;;8.07;;
4244;SDS011;2136;48.502;9.194;2022-12-08T09:58:06;13.27;;;9.40;;
4244;SDS011;2136;48.502;9.194;2022-12-08T10:00:42;9.00;;;6.50;;
4244;SDS011;2136;48.502;9.194;2022-12-08T10:03:10;13.60;;;7.70;;
4244;SDS011;2136;48.502;9.194;2022-12-08T10:05:40;13.80;;;8.23;;
4244;SDS011;2136;48.502;9.194;2022-12-08T10:08:14;7.43;;;5.97;;
4244;SDS011;2136;48.502;9.194;2022-12-08T10:10:46;9.13;;;5.70;;
4244;SDS011;2136;48.502;9.194;2022-12-08T10:13:22;13.80;;;5.73;;
4244;SDS011;2136;48.502;9.194;2022-12-08T10:16:01;7.27;;;5.23;;
4244;SDS011;2136;48.502;9.194;2022-12-08T10:18:37;6.63;;;4.33;;
4244;SDS011;2136;48.502;9.194;2022-12-08T10:21:11;8.20;;;5.40;;
4244;SDS011;2136;48.502;9.194;2022-12-08T10:23:42;12.30;;;5.77;;
4244;SDS011;2136;48.502;9.194;2022-12-08T10:26:12;8.00;;;5.73;;
4244;SDS011;2136;48.502;9.194;2022-12-08T10:28:41;12.07;;;6.87;;
4244;SDS011;2136;48.502;9.194;2022-12-08T10:31:13;5.33;;;4.50;;
4244;SDS011;2136;48.502;9.194;2022-12-08T10:33:41;8.20;;;5.30;;
4244;SDS011;2136;48.502;9.194;2022-12-08T10:36:10;12.43;;;6.43;;
4244;SDS011;2136;48.502;9.194;2022-12-08T10:38:38;11.37;;;6.33;;
4244;SDS011;2136;48.502;9.194;2022-12-08T10:41:06;7.80;;;5.63;;
4244;SDS011;2136;48.502;9.194;2022-12-08T10:43:40;7.37;;;5.17;;
4244;SDS011;2136;48.502;9.194;2022-12-08T10:46:10;9.07;;;5.57;;
4244;SDS011;2136;48.502;9.194;2022-12-08T10:48:46;14.47;;;6.70;;
4244;SDS011;2136;48.502;9.194;2022-12-08T10:51:23;5.30;;;4.10;;
4244;SDS011;2136;48.502;9.194;2022-12-08T10:53:52;7.50;;;4.27;;
4244;SDS011;2136;48.502;9.194;2022-12-08T10:56:22;10.47;;;5.23;;
4244;SDS011;2136;48.502;9.194;2022-12-08T10:58:56;7.80;;;5.17;;
4244;SDS011;2136;48.502;9.194;2022-12-08T11:01:31;8.60;;;5.20;;
4244;SDS011;2136;48.502;9.194;2022-12-08T11:04:03;9.33;;;4.30;;
4244;SDS011;2136;48.502;9.194;2022-12-08T11:06:34;6.93;;;4.23;;
4244;SDS011;2136;48.502;9.194;2022-12-08T11:09:03;9.47;;;5.53;;
4244;SDS011;2136;48.502;9.194;2022-12-08T11:11:39;7.13;;;4.40;;
4244;SDS011;2136;48.502;9.194;2022-12-08T11:14:15;4.33;;;3.13;;
4244;SDS011;2136;48.502;9.194;2022-12-08T11:16:44;9.43;;;5.50;;
4244;SDS011;2136;48.502;9.194;2022-12-08T11:19:13;4.50;;;3.70;;
4244;SDS011;2136;48.502;9.194;2022-12-08T11:21:43;7.70;;;3.67;;
4244;SDS011;2136;48.502;9.194;2022-12-08T11:24:20;6.23;;;4.03;;
4244;SDS011;2136;48.502;9.194;2022-12-08T11:26:50;9.23;;;4.00;;
4244;SDS011;2136;48.502;9.194;2022-12-08T11:29:18;9.37;;;5.07;;
4244;SDS011;2136;48.502;9.194;2022-12-08T11:31:46;9.17;;;5.20;;
4244;SDS011;2136;48.502;9.194;2022-12-08T11:34:18;8.77;;;3.60;;
4244;SDS011;2136;48.502;9.194;2022-12-08T11:36:49;2.50;;;2.30;;
4244;SDS011;2136;48.502;9.194;2022-12-08T11:39:18;5.80;;;4.33;;
4244;SDS011;2136;48.502;9.194;2022-12-08T11:41:46;8.30;;;5.07;;
4244;SDS011;2136;48.502;9.194;2022-12-08T11:44:17;6.93;;;4.73;;
4244;SDS011;2136;48.502;9.194;2022-12-08T11:46:52;5.40;;;3.83;;
4244;SDS011;2136;48.502;9.194;2022-12-08T11:49:24;9.60;;;5.67;;
4244;SDS011;2136;48.502;9.194;2022-12-08T11:52:00;5.33;;;3.93;;
4244;SDS011;2136;48.502;9.194;2022-12-08T11:54:31;12.00;;;3.53;;
4244;SDS011;2136;48.502;9.194;2022-12-08T11:57:00;3.33;;;3.03;;
4244;SDS011;2136;48.502;9.194;2022-12-08T11:59:30;7.93;;;4.50;;
4244;SDS011;2136;48.502;9.194;2022-12-08T12:02:00;3.30;;;3.00;;
4244;SDS011;2136;48.502;9.194;2022-12-08T12:04:30;7.47;;;5.17;;
4244;SDS011;2136;48.502;9.194;2022-12-08T12:10:21;3.83;;;3.43;;
4244;SDS011;2136;48.502;9.194;2022-12-08T12:12:57;7.10;;;4.33;;
4244;SDS011;2136;48.502;9.194;2022-12-08T12:15:42;5.27;;;4.10;;
4244;SDS011;2136;48.502;9.194;2022-12-08T12:18:38;9.43;;;4.13;;
4244;SDS011;2136;48.502;9.194;2022-12-08T12:21:11;6.43;;;5.50;;
4244;SDS011;2136;48.502;9.194;2022-12-08T12:23:44;5.83;;;4.77;;
4244;SDS011;2136;48.502;9.194;2022-12-08T12:26:18;9.40;;;4.93;;
4244;SDS011;2136;48.502;9.194;2022-12-08T12:28:48;5.83;;;3.30;;
4244;SDS011;2136;48.502;9.194;2022-12-08T12:31:20;3.93;;;3.00;;
4244;SDS011;2136;48.502;9.194;2022-12-08T12:33:49;6.87;;;4.50;;
4244;SDS011;2136;48.502;9.194;2022-12-08T12:36:18;4.77;;;3.00;;
4244;SDS011;2136;48.502;9.194;2022-12-08T12:38:48;5.80;;;3.80;;
4244;SDS011;2136;48.502;9.194;2022-12-08T12:41:28;6.40;;;3.53;;
4244;SDS011;2136;48.502;9.194;2022-12-08T12:44:07;3.70;;;3.20;;
4244;SDS011;2136;48.502;9.194;2022-12-08T12:46:57;4.60;;;4.17;;
4244;SDS011;2136;48.502;9.194;2022-12-08T12:52:39;4.23;;;3.50;;
4244;SDS011;2136;48.502;9.194;2022-12-08T12:55:21;3.37;;;3.07;;
4244;SDS011;2136;48.502;9.194;2022-12-08T12:57:51;4.30;;;3.27;;
4244;SDS011;2136;48.502;9.194;2022-12-08T13:00:20;6.63;;;4.00;;
4244;SDS011;2136;48.502;9.194;2022-12-08T13:02:48;3.90;;;3.27;;
4244;SDS011;2136;48.502;9.194;2022-12-08T13:05:17;4.73;;;3.03;;
4244;SDS011;2136;48.502;9.194;2022-12-08T13:07:48;2.67;;;2.47;;
4244;SDS011;2136;48.502;9.194;2022-12-08T13:10:19;3.30;;;2.70;;
4244;SDS011;2136;48.502;9.194;2022-12-08T13:13:03;4.97;;;3.40;;
4244;SDS011;2136;48.502;9.194;2022-12-08T13:15:32;3.80;;;3.23;;
4244;SDS011;2136;48.502;9.194;2022-12-08T13:18:01;3.63;;;3.13;;
4244;SDS011;2136;48.502;9.194;2022-12-08T13:20:29;5.83;;;3.60;;
4244;SDS011;2136;48.502;9.194;2022-12-08T13:23:12;9.50;;;3.83;;
4244;SDS011;2136;48.502;9.194;2022-12-08T13:31:44;6.83;;;4.70;;
4244;SDS011;2136;48.502;9.194;2022-12-08T13:34:13;4.93;;;3.30;;
4244;SDS011;2136;48.502;9.194;2022-12-08T13:36:46;7.10;;;4.50;;
4244;SDS011;2136;48.502;9.194;2022-12-08T13:39:19;6.83;;;4.33;;
4244;SDS011;2136;48.502;9.194;2022-12-08T13:41:51;6.77;;;3.90;;
4244;SDS011;2136;48.502;9.194;2022-12-08T13:44:25;6.87;;;3.70;;
4244;SDS011;2136;48.502;9.194;2022-12-08T13:46:57;4.67;;;3.90;;
4244;SDS011;2136;48.502;9.194;2022-12-08T13:49:26;8.63;;;3.60;;
4244;SDS011;2136;48.502;9.194;2022-12-08T13:51:59;4.40;;;3.07;;
4244;SDS011;2136;48.502;9.194;2022-12-08T13:54:27;4.67;;;3.27;;
4244;SDS011;2136;48.502;9.194;2022-12-08T13:57:00;7.87;;;2.80;;
4244;SDS011;2136;48.502;9.194;2022-12-08T13:59:31;6.40;;;4.17;;
4244;SDS011;2136;48.502;9.194;2022-12-08T14:02:00;6.47;;;3.90;;
4244;SDS011;2136;48.502;9.194;2022-12-08T14:04:30;4.57;;;4.17;;
4244;SDS011;2136;48.502;9.194;2022-12-08T14:06:58;4.63;;;3.50;;
4244;SDS011;2136;48.502;9.194;2022-12-08T14:09:31;5.82;;;3.47;;
4244;SDS011;2136;48.502;9.194;2022-12-08T14:12:02;4.27;;;3.47;;
4244;SDS011;2136;48.502;9.194;2022-12-08T14:14:33;6.43;;;3.60;;
4244;SDS011;2136;48.502;9.194;2022-12-08T14:17:06;7.23;;;4.37;;
4244;SDS011;2136;48.502;9.194;2022-12-08T14:19:36;3.20;;;2.90;;
4244;SDS011;2136;48.502;9.194;2022-12-08T14:22:05;10.13;;;3.60;;
4244;SDS011;2136;48.502;9.194;2022-12-08T14:24:36;11.83;;;5.77;;
4244;SDS011;2136;48.502;9.194;2022-12-08T14:27:06;6.50;;;3.90;;
4244;SDS011;2136;48.502;9.194;2022-12-08T14:29:41;7.50;;;4.43;;
4244;SDS011;2136;48.502;9.194;2022-12-08T14:32:20;4.40;;;3.40;;
4244;SDS011;2136;48.502;9.194;2022-12-08T14:34:53;6.00;;;4.20;;
4244;SDS011;2136;48.502;9.194;2022-12-08T14:37:21;5.93;;;3.77;;
4244;SDS011;2136;48.502;9.194;2022-12-08T14:39:50;4.70;;;3.83;;
4244;SDS011;2136;48.502;9.194;2022-12-08T14:42:21;6.03;;;4.23;;
4244;SDS011;2136;48.502;9.194;2022-12-08T14:45:00;7.63;;;5.00;;
4244;SDS011;2136;48.502;9.194;2022-12-08T14:47:30;5.23;;;3.93;;
4244;SDS011;2136;48.502;9.194;2022-12-08T14:49:58;8.53;;;3.77;;
4244;SDS011;2136;48.502;9.194;2022-12-08T14:52:26;4.30;;;3.90;;
4244;SDS011;2136;48.502;9.194;2022-12-08T14:54:53;4.67;;;4.20;;
4244;SDS011;2136;48.502;9.194;2022-12-08T14:57:21;4.60;;;3.30;;
4244;SDS011;2136;48.502;9.194;2022-12-08T14:59:52;4.50;;;3.90;;
4244;SDS011;2136;48.502;9.194;2022-12-08T15:02:23;4.43;;;3.40;;
4244;SDS011;2136;48.502;9.194;2022-12-08T15:04:56;8.10;;;3.80;;
4244;SDS011;2136;48.502;9.194;2022-12-08T15:07:26;4.53;;;4.00;;
4244;SDS011;2136;48.502;9.194;2022-12-08T15:10:05;4.43;;;3.73;;
4244;SDS011;2136;48.502;9.194;2022-12-08T15:12:59;6.87;;;4.13;;
4244;SDS011;2136;48.502;9.194;2022-12-08T15:15:29;4.40;;;3.87;;
4244;SDS011;2136;48.502;9.194;2022-12-08T15:18:00;2.97;;;2.67;;
4244;SDS011;2136;48.502;9.194;2022-12-08T15:20:38;3.80;;;2.60;;
4244;SDS011;2136;48.502;9.194;2022-12-08T15:23:23;4.10;;;3.27;;
4244;SDS011;2136;48.502;9.194;2022-12-08T15:25:52;2.77;;;2.57;;
4244;SDS011;2136;48.502;9.194;2022-12-08T15:28:21;3.50;;;2.70;;
4244;SDS011;2136;48.502;9.194;2022-12-08T15:30:50;2.33;;;2.23;;
4244;SDS011;2136;48.502;9.194;2022-12-08T15:33:17;2.27;;;1.97;;
4244;SDS011;2136;48.502;9.194;2022-12-08T15:35:45;4.90;;;2.73;;
4244;SDS011;2136;48.502;9.194;2022-12-08T15:38:15;2.83;;;2.60;;